createdAt,value
2023-01-15T00:00:00.884Z,11.94
2023-01-15T00:00:42.671Z,11.83
2023-01-15T00:01:34.758Z,11.90
2023-01-15T00:02:18.130Z,11.94
2023-01-15T00:03:00.337Z,11.81
2023-01-15T00:03:42.127Z,11.99
2023-01-15T00:04:23.954Z,11.96
2023-01-15T00:05:06.396Z,11.94
2023-01-15T00:05:48.674Z,11.96
2023-01-15T00:06:32.715Z,11.90
2023-01-15T00:07:14.934Z,11.97
2023-01-15T00:07:57.873Z,11.98
2023-01-15T00:08:40.941Z,11.95
2023-01-15T00:09:23.239Z,11.90
2023-01-15T00:10:06.051Z,11.91
2023-01-15T00:10:47.995Z,11.69
2023-01-15T00:11:32.320Z,11.91
2023-01-15T00:12:15.482Z,11.83
2023-01-15T00:13:05.952Z,11.81
2023-01-15T02:05:02.926Z,12.10
2023-01-15T02:05:50.399Z,12.08
2023-01-15T02:06:32.780Z,12.09
2023-01-15T02:07:14.652Z,12.06
2023-01-15T02:07:56.774Z,12.10
2023-01-15T02:08:39.650Z,12.02
2023-01-15T02:09:21.467Z,12.15
2023-01-15T02:10:03.902Z,12.15
2023-01-15T02:10:51.896Z,12.18
2023-01-15T02:11:34.846Z,12.11
2023-01-15T02:12:19.385Z,12.20
2023-01-15T02:13:10.080Z,12.20
2023-01-15T02:14:03.805Z,12.01
2023-01-15T02:14:58.564Z,12.12
2023-01-15T02:15:48.138Z,12.17
2023-01-15T02:16:39.160Z,12.01
2023-01-15T02:17:29.826Z,12.07
2023-01-15T02:18:28.487Z,12.06
2023-01-15T02:19:45.588Z,12.00
2023-01-15T02:20:37.703Z,11.97
2023-01-15T02:21:31.033Z,11.95
2023-01-15T02:22:18.589Z,11.95
2023-01-15T02:23:15.159Z,11.87
2023-01-15T02:24:15.423Z,11.91
2023-01-15T02:25:14.006Z,11.88
2023-01-15T02:26:12.621Z,11.83
2023-01-15T02:27:01.463Z,11.80
2023-01-15T02:27:49.488Z,11.69
2023-01-15T02:28:38.605Z,11.76
2023-01-15T02:29:42.735Z,11.78
2023-01-15T02:30:35.469Z,11.79
2023-01-15T02:31:27.404Z,11.80
2023-01-15T02:32:25.844Z,11.78
2023-01-15T02:33:24.383Z,11.80
2023-01-15T02:34:20.998Z,11.81
2023-01-15T02:35:11.724Z,11.71
2023-01-15T02:36:00.797Z,11.93
2023-01-15T02:36:52.006Z,11.87
2023-01-15T02:37:42.274Z,11.91
2023-01-15T02:38:30.217Z,11.70
2023-01-15T02:39:16.792Z,11.92
2023-01-15T02:40:02.176Z,11.86
2023-01-15T02:40:48.340Z,11.92
2023-01-15T02:41:39.627Z,11.90
2023-01-15T02:42:23.461Z,11.83
2023-01-15T02:43:07.868Z,11.74
2023-01-15T02:43:54.038Z,11.90
2023-01-15T02:44:47.349Z,11.97
2023-01-15T02:45:36.551Z,11.96
2023-01-15T02:46:32.833Z,11.86
2023-01-15T02:47:21.967Z,11.78
2023-01-15T02:48:12.262Z,11.81
2023-01-15T02:48:58.029Z,11.86
2023-01-15T02:49:45.294Z,11.90
2023-01-15T02:50:35.706Z,11.89
2023-01-15T02:51:23.165Z,11.88
2023-01-15T02:52:10.318Z,11.86
2023-01-15T02:52:55.409Z,11.74
2023-01-15T02:53:45.276Z,11.93
2023-01-15T02:54:32.630Z,11.85
2023-01-15T02:55:24.127Z,11.92
2023-01-15T02:56:14.920Z,11.86
2023-01-15T02:57:03.221Z,11.89
2023-01-15T02:57:47.255Z,11.91
2023-01-15T02:58:34.400Z,11.92
2023-01-15T02:59:27.251Z,11.86
2023-01-15T03:00:13.873Z,11.91
2023-01-15T03:00:58.828Z,11.94
2023-01-15T03:01:46.157Z,11.81
2023-01-15T03:02:36.193Z,11.95
2023-01-15T03:03:49.307Z,11.88
2023-01-15T03:04:41.738Z,11.90
2023-01-15T03:05:39.016Z,11.86
2023-01-15T03:06:36.322Z,11.83
2023-01-15T03:07:34.604Z,11.67
2023-01-15T03:08:16.486Z,11.81
2023-01-15T03:08:58.727Z,11.69
2023-01-15T03:09:40.451Z,11.80
2023-01-15T03:10:41.905Z,11.80
2023-01-15T03:11:23.885Z,11.84
2023-01-15T03:12:16.111Z,11.83
2023-01-15T03:13:03.170Z,11.84
2023-01-15T03:14:27.565Z,11.76
2023-01-15T03:15:42.845Z,11.79
2023-01-15T03:16:40.273Z,11.80
2023-01-15T03:17:28.487Z,11.80
2023-01-15T03:18:14.983Z,11.79
2023-01-15T03:19:18.224Z,11.82
2023-01-15T03:20:29.264Z,11.81
2023-01-15T03:21:15.490Z,11.74
2023-01-15T03:22:08.564Z,11.67
2023-01-15T03:22:56.322Z,11.64
2023-01-15T03:23:42.217Z,11.78
2023-01-15T03:24:40.037Z,11.77
2023-01-15T03:25:30.766Z,11.61
2023-01-15T03:26:13.090Z,11.78
2023-01-15T03:26:57.214Z,11.72
2023-01-15T03:27:40.047Z,11.71
2023-01-15T03:28:26.694Z,11.65
2023-01-15T03:29:10.618Z,11.71
2023-01-15T03:29:58.670Z,11.71
2023-01-15T03:30:40.570Z,11.68
2023-01-15T03:31:22.549Z,11.67
2023-01-15T03:32:06.145Z,11.63
2023-01-15T03:32:48.593Z,11.65
2023-01-15T03:33:30.872Z,11.68
2023-01-15T03:34:13.485Z,11.68
2023-01-15T03:34:58.851Z,11.64
2023-01-15T03:35:53.600Z,11.65
2023-01-15T03:36:57.431Z,11.47
2023-01-15T03:37:41.810Z,11.55
2023-01-15T03:38:47.158Z,11.52
2023-01-15T03:39:40.241Z,11.49
2023-01-15T03:40:38.802Z,11.45
2023-01-15T03:41:32.666Z,11.46
2023-01-15T03:42:20.725Z,11.41
2023-01-15T03:43:28.225Z,11.40
2023-01-15T03:44:49.818Z,11.37
2023-01-15T03:45:38.011Z,11.36
2023-01-15T03:46:47.506Z,11.29
2023-01-15T03:47:53.532Z,11.23
2023-01-15T03:48:47.957Z,11.08
2023-01-15T03:49:51.063Z,11.14
2023-01-15T03:50:49.950Z,11.06
2023-01-15T03:52:10.584Z,10.95
2023-01-15T03:53:11.812Z,10.92
2023-01-15T03:54:03.355Z,10.86
2023-01-15T03:54:55.896Z,10.83
2023-01-15T03:55:46.816Z,10.77
2023-01-15T03:56:38.263Z,10.69
2023-01-15T03:57:52.648Z,10.70
2023-01-15T03:58:47.659Z,10.68
2023-01-15T03:59:57.619Z,10.63
2023-01-15T04:00:44.175Z,10.59
2023-01-15T04:01:35.264Z,10.53
2023-01-15T04:02:21.135Z,10.51
2023-01-15T04:03:08.192Z,10.49
2023-01-15T04:03:54.386Z,10.48
2023-01-15T04:04:40.743Z,10.46
2023-01-15T04:05:27.979Z,10.42
2023-01-15T04:06:18.920Z,10.37
2023-01-15T04:07:32.090Z,10.33
2023-01-15T07:15:40.932Z,7.05
2023-01-15T07:16:28.680Z,7.05
2023-01-15T07:17:11.219Z,7.09
2023-01-15T07:17:57.001Z,7.04
2023-01-15T07:18:38.749Z,7.07
2023-01-15T07:19:20.643Z,7.05
2023-01-15T07:20:02.409Z,7.01
2023-01-15T07:20:44.136Z,7.09
2023-01-15T07:21:25.990Z,7.01
2023-01-15T07:22:09.271Z,7.02
2023-01-15T07:22:53.812Z,6.94
2023-01-15T07:23:35.548Z,6.98
2023-01-15T07:24:17.794Z,6.95
2023-01-15T07:24:59.535Z,6.92
2023-01-15T07:25:41.266Z,7.05
2023-01-15T07:26:22.950Z,6.94
2023-01-15T07:27:04.961Z,7.03
2023-01-15T07:27:48.250Z,7.04
2023-01-15T07:28:30.880Z,6.95
2023-01-15T07:29:13.671Z,6.98
2023-01-15T07:29:55.393Z,6.94
2023-01-15T07:30:37.176Z,6.80
2023-01-15T07:31:19.023Z,6.92
2023-01-15T07:32:00.787Z,6.89
2023-01-15T07:32:42.608Z,7.00
2023-01-15T07:33:24.305Z,6.98
2023-01-15T07:34:06.112Z,6.88
2023-01-15T07:34:47.785Z,7.00
2023-01-15T07:35:31.029Z,6.99
2023-01-15T07:36:13.124Z,7.05
2023-01-15T07:36:54.968Z,7.06
2023-01-15T07:37:37.784Z,6.86
2023-01-15T07:38:19.589Z,7.07
2023-01-15T07:39:04.322Z,7.01
2023-01-15T07:39:46.060Z,6.99
2023-01-15T07:40:27.810Z,6.96
2023-01-15T07:41:28.252Z,7.01
2023-01-15T07:42:29.362Z,6.95
2023-01-15T07:43:29.466Z,6.92
2023-01-15T07:44:30.658Z,6.90
2023-01-15T07:45:30.550Z,6.78
2023-01-15T07:46:30.961Z,6.89
2023-01-15T07:47:39.731Z,6.81
2023-01-15T07:48:39.940Z,6.59
2023-01-15T07:49:39.897Z,6.70
2023-01-15T07:50:23.931Z,6.73
2023-01-15T07:51:05.800Z,6.71
2023-01-15T07:51:47.585Z,6.70
2023-01-15T07:52:29.348Z,6.56
2023-01-15T07:53:11.079Z,6.61
2023-01-15T07:53:52.782Z,6.41
2023-01-15T07:54:34.438Z,6.51
2023-01-15T07:55:16.369Z,6.30
2023-01-15T07:55:58.059Z,6.40
2023-01-15T07:56:39.827Z,6.46
2023-01-15T07:57:22.664Z,6.39
2023-01-15T07:58:04.453Z,6.40
2023-01-15T07:58:50.095Z,6.40
2023-01-15T07:59:31.883Z,6.23
2023-01-15T08:00:19.231Z,6.31
2023-01-15T08:01:01.231Z,6.30
2023-01-15T08:01:43.043Z,6.30
2023-01-15T08:02:24.875Z,6.38
2023-01-15T08:03:06.585Z,6.37
2023-01-15T08:03:48.339Z,6.21
2023-01-15T08:04:30.121Z,6.26
2023-01-15T08:05:12.513Z,6.29
2023-01-15T08:05:56.741Z,6.28
2023-01-15T08:06:38.587Z,6.33
2023-01-15T08:07:20.414Z,6.05
2023-01-15T08:08:02.253Z,6.31
2023-01-15T08:08:44.178Z,6.28
2023-01-15T08:09:26.162Z,6.26
2023-01-15T08:10:10.102Z,6.28
2023-01-15T08:11:10.307Z,6.26
2023-01-15T08:12:11.126Z,6.06
2023-01-15T08:13:11.726Z,5.78
2023-01-15T08:14:11.819Z,6.20
2023-01-15T08:15:11.993Z,6.21
2023-01-15T08:15:53.757Z,6.18
2023-01-15T08:16:36.870Z,6.24
2023-01-15T08:17:18.635Z,6.18
2023-01-15T08:18:00.446Z,6.04
2023-01-15T08:18:42.186Z,6.17
2023-01-15T08:19:29.665Z,6.10
2023-01-15T08:20:15.484Z,6.12
2023-01-15T08:20:57.323Z,5.95
2023-01-15T08:21:39.049Z,6.08
2023-01-15T08:22:21.101Z,5.86
2023-01-15T08:23:03.225Z,6.03
2023-01-15T08:23:46.549Z,6.06
2023-01-15T08:24:28.623Z,6.06
2023-01-15T08:25:13.281Z,6.05
2023-01-15T08:25:55.179Z,6.02
2023-01-15T08:26:36.891Z,6.03
2023-01-15T08:27:18.683Z,6.03
2023-01-15T08:28:03.269Z,6.06
2023-01-15T08:28:45.055Z,5.87
2023-01-15T08:29:27.675Z,6.03
2023-01-15T08:30:20.568Z,6.03
2023-01-15T08:31:02.456Z,5.91
2023-01-15T08:31:44.223Z,5.92
2023-01-15T08:32:26.009Z,6.01
2023-01-15T08:33:07.803Z,6.01
2023-01-15T08:33:49.662Z,5.86
2023-01-15T08:34:31.385Z,5.93
2023-01-15T08:35:13.409Z,5.93
2023-01-15T08:35:55.072Z,6.02
2023-01-15T08:36:36.965Z,6.02
2023-01-15T08:37:18.758Z,5.99
2023-01-15T08:38:07.549Z,5.87
2023-01-15T08:38:50.313Z,6.01
2023-01-15T08:39:32.172Z,6.00
2023-01-15T08:40:14.180Z,6.04
2023-01-15T08:40:59.112Z,6.04
2023-01-15T08:41:40.918Z,6.07
2023-01-15T08:42:22.864Z,6.11
2023-01-15T08:43:04.811Z,6.11
2023-01-15T08:43:46.625Z,5.99
2023-01-15T08:44:28.321Z,6.12
2023-01-15T08:45:10.540Z,5.97
2023-01-15T08:45:53.267Z,6.02
2023-01-15T08:46:34.997Z,6.08
2023-01-15T08:47:17.735Z,6.08
2023-01-15T08:48:00.373Z,6.02
2023-01-15T08:48:42.231Z,5.90
2023-01-15T08:49:24.453Z,5.94
2023-01-15T08:50:08.733Z,6.16
2023-01-15T08:50:50.963Z,6.13
2023-01-15T08:51:32.659Z,6.00
2023-01-15T08:52:15.013Z,6.11
2023-01-15T08:52:56.683Z,6.12
2023-01-15T08:53:39.075Z,6.13
2023-01-15T08:54:22.351Z,6.15
2023-01-15T08:55:04.411Z,6.12
2023-01-15T08:55:47.019Z,6.05
2023-01-15T08:56:28.768Z,6.11
2023-01-15T08:57:12.534Z,6.16
2023-01-15T08:57:54.313Z,6.11
2023-01-15T08:58:36.130Z,6.19
2023-01-15T08:59:18.329Z,6.20
2023-01-15T09:00:00.169Z,6.19
2023-01-15T09:00:43.101Z,6.19
2023-01-15T09:01:24.959Z,6.04
2023-01-15T09:02:07.235Z,6.12
2023-01-15T09:02:50.242Z,6.07
2023-01-15T09:03:32.838Z,6.19
2023-01-15T09:04:20.060Z,6.19
2023-01-15T09:05:01.807Z,6.17
2023-01-15T09:05:43.659Z,6.13
2023-01-15T09:06:25.924Z,6.12
2023-01-15T09:07:07.777Z,6.15
2023-01-15T09:07:49.589Z,6.09
2023-01-15T09:08:31.321Z,6.02
2023-01-15T09:09:13.403Z,6.06
2023-01-15T09:09:56.336Z,6.07
2023-01-15T09:10:38.084Z,6.14
2023-01-15T09:11:19.949Z,6.10
2023-01-15T09:12:02.043Z,6.01
2023-01-15T09:12:43.794Z,6.00
2023-01-15T09:13:26.237Z,6.15
2023-01-15T09:14:59.375Z,5.98
2023-01-15T09:15:14.770Z,6.06
2023-01-15T09:16:01.682Z,6.07
2023-01-15T09:16:43.477Z,6.07
2023-01-15T09:17:25.327Z,5.94
2023-01-15T09:18:07.061Z,6.08
2023-01-15T09:18:48.960Z,6.08
2023-01-15T09:19:30.815Z,6.07
2023-01-15T09:20:15.799Z,6.08
2023-01-15T09:20:58.035Z,5.94
2023-01-15T09:21:39.955Z,6.09
2023-01-15T09:22:21.778Z,6.11
2023-01-15T09:23:03.625Z,5.99
2023-01-15T09:23:45.437Z,6.01
2023-01-15T09:24:27.244Z,6.05
2023-01-15T09:25:09.448Z,6.18
2023-01-15T09:25:56.004Z,6.20
2023-01-15T09:26:39.839Z,6.26
2023-01-15T09:27:21.900Z,6.23
2023-01-15T09:28:03.888Z,6.24
2023-01-15T09:28:45.676Z,6.14
2023-01-15T09:29:27.450Z,6.12
2023-01-15T09:30:17.337Z,6.23
2023-01-15T09:30:59.664Z,6.16
2023-01-15T09:31:41.629Z,6.21
2023-01-15T09:32:23.396Z,6.13
2023-01-15T09:33:05.071Z,6.21
2023-01-15T09:33:46.883Z,6.02
2023-01-15T09:34:28.660Z,6.18
2023-01-15T09:35:10.540Z,6.17
2023-01-15T09:35:52.766Z,6.00
2023-01-15T09:36:35.585Z,6.16
2023-01-15T09:37:17.498Z,6.20
2023-01-15T09:37:59.565Z,6.23
2023-01-15T09:38:41.189Z,6.09
2023-01-15T09:39:22.962Z,6.25
2023-01-15T09:40:07.768Z,6.26
2023-01-15T09:40:56.704Z,6.10
2023-01-15T09:42:16.119Z,6.26
2023-01-15T09:43:05.011Z,6.19
2023-01-15T09:43:53.441Z,6.26
2023-01-15T09:45:19.511Z,6.27
2023-01-15T09:46:14.133Z,6.15
2023-01-15T09:47:14.895Z,6.29
2023-01-15T09:48:16.784Z,6.40
2023-01-15T09:49:32.169Z,6.38
2023-01-15T09:50:51.169Z,6.34
2023-01-15T09:51:35.504Z,6.27
2023-01-15T09:52:19.834Z,6.26
2023-01-15T09:53:28.682Z,6.01
2023-01-15T09:54:25.229Z,6.24
2023-01-15T09:55:26.754Z,6.21
2023-01-15T09:56:19.357Z,6.23
2023-01-15T09:57:02.024Z,6.16
2023-01-15T09:57:46.437Z,5.87
2023-01-15T09:58:37.322Z,6.13
2023-01-15T09:59:41.171Z,6.02
2023-01-15T10:00:25.594Z,6.05
2023-01-15T10:01:16.723Z,6.02
2023-01-15T10:02:00.220Z,6.12
2023-01-15T10:02:51.450Z,6.16
2023-01-15T10:03:45.088Z,6.11
2023-01-15T10:04:38.036Z,6.13
2023-01-15T10:05:27.530Z,6.12
2023-01-15T10:06:13.044Z,6.21
2023-01-15T10:07:05.959Z,6.25
2023-01-15T10:08:12.710Z,6.16
2023-01-15T10:09:18.107Z,6.27
2023-01-15T10:10:05.057Z,6.09
2023-01-15T10:11:02.118Z,6.19
2023-01-15T10:12:06.563Z,6.19
2023-01-15T10:12:54.366Z,6.23
2023-01-15T10:13:45.507Z,6.26
2023-01-15T10:14:39.662Z,6.21
2023-01-15T10:15:32.916Z,6.16
2023-01-15T10:16:29.718Z,6.10
2023-01-15T10:17:39.716Z,6.11
2023-01-15T10:18:24.548Z,6.07
2023-01-15T10:19:08.614Z,6.07
2023-01-15T10:19:51.742Z,6.13
2023-01-15T10:20:52.571Z,5.94
2023-01-15T10:21:53.209Z,6.13
2023-01-15T10:23:13.814Z,6.16
2023-01-15T10:24:12.608Z,6.08
2023-01-15T10:24:58.257Z,5.98
2023-01-15T10:25:49.140Z,5.98
2023-01-15T10:26:52.831Z,6.14
2023-01-15T10:27:36.531Z,6.17
2023-01-15T10:28:28.817Z,6.03
2023-01-15T10:29:30.408Z,6.22
2023-01-15T10:30:17.527Z,6.21
2023-01-15T10:31:12.664Z,6.19
2023-01-15T10:32:24.556Z,6.07
2023-01-15T10:33:54.270Z,6.13
2023-01-15T10:34:48.261Z,6.18
2023-01-15T10:35:45.672Z,6.18
2023-01-15T10:36:42.234Z,6.17
2023-01-15T10:37:41.756Z,6.18
2023-01-15T10:38:23.352Z,6.19
2023-01-15T10:39:30.120Z,6.19
2023-01-15T10:40:39.674Z,6.18
2023-01-15T10:41:37.070Z,6.20
2023-01-15T10:42:40.577Z,6.10
2023-01-15T10:43:59.587Z,6.18
2023-01-15T10:44:51.890Z,6.12
2023-01-15T10:45:40.505Z,6.07
2023-01-15T10:46:29.600Z,6.20
2023-01-15T10:47:15.983Z,6.20
2023-01-15T10:48:04.034Z,6.18
2023-01-15T10:48:48.773Z,6.15
2023-01-15T10:49:31.414Z,6.23
2023-01-15T10:50:18.198Z,6.15
2023-01-15T10:51:06.953Z,5.93
2023-01-15T10:51:54.375Z,5.98
2023-01-15T10:52:40.066Z,6.05
2023-01-15T10:53:31.193Z,6.23
2023-01-15T10:54:34.494Z,6.19
2023-01-15T10:55:38.685Z,6.08
2023-01-15T10:56:45.982Z,6.13
2023-01-15T10:57:42.573Z,6.08
2023-01-15T10:58:34.483Z,6.10
2023-01-15T10:59:16.332Z,6.14
2023-01-15T11:00:02.324Z,6.13
2023-01-15T11:00:52.422Z,6.13
2023-01-15T11:01:34.646Z,6.15
2023-01-15T11:02:28.574Z,6.14
2023-01-15T11:03:16.723Z,6.12
2023-01-15T11:03:58.587Z,5.98
2023-01-15T11:04:40.363Z,5.88
2023-01-15T11:05:22.368Z,5.99
2023-01-15T11:06:08.186Z,6.08
2023-01-15T11:06:50.052Z,6.00
2023-01-15T11:09:10.773Z,5.98
2023-01-15T11:09:53.478Z,6.05
2023-01-15T11:10:35.312Z,6.06
2023-01-15T11:11:22.732Z,6.10
2023-01-15T11:12:26.762Z,5.99
2023-01-15T11:13:39.684Z,6.03
2023-01-15T11:14:49.843Z,5.90
2023-01-15T11:15:50.205Z,6.12
2023-01-15T11:16:51.105Z,6.29
2023-01-15T11:17:54.343Z,6.22
2023-01-15T11:19:00.300Z,5.89
2023-01-15T11:19:43.780Z,5.96
2023-01-15T11:20:30.542Z,6.08
2023-01-15T11:21:17.663Z,6.16
2023-01-15T11:22:01.171Z,6.10
2023-01-15T11:22:45.796Z,6.03
2023-01-15T11:23:28.120Z,6.07
2023-01-15T11:24:17.405Z,6.05
2023-01-15T11:25:01.185Z,6.03
2023-01-15T11:25:54.985Z,6.07
2023-01-15T11:26:38.301Z,6.08
2023-01-15T11:27:26.317Z,5.94
2023-01-15T11:28:09.895Z,6.05
2023-01-15T11:28:52.864Z,6.05
2023-01-15T11:29:37.551Z,5.95
2023-01-15T11:30:40.112Z,6.06
2023-01-15T11:31:22.376Z,5.91
2023-01-15T11:32:04.484Z,6.12
2023-01-15T11:32:55.900Z,6.10
2023-01-15T11:33:39.110Z,6.16
2023-01-15T11:34:24.977Z,6.16
2023-01-15T11:35:21.577Z,6.13
2023-01-15T11:36:20.451Z,6.15
2023-01-15T11:37:06.431Z,6.15
2023-01-15T11:37:48.240Z,6.05
2023-01-15T11:38:47.741Z,5.95
2023-01-15T11:39:31.456Z,6.04
2023-01-15T11:40:19.077Z,6.00
2023-01-15T11:41:04.970Z,5.98
2023-01-15T11:42:07.533Z,5.99
2023-01-15T11:43:09.768Z,5.95
2023-01-15T11:44:17.735Z,5.99
2023-01-15T11:45:18.281Z,5.88
2023-01-15T11:46:18.789Z,5.90
2023-01-15T11:47:19.624Z,5.94
2023-01-15T11:48:20.036Z,6.09
2023-01-15T11:49:27.666Z,6.12
2023-01-15T11:50:38.218Z,6.20
2023-01-15T11:51:20.265Z,6.17
2023-01-15T11:52:06.032Z,6.00
2023-01-15T11:52:58.266Z,6.13
2023-01-15T11:53:58.036Z,6.05
2023-01-15T11:54:45.272Z,6.06
2023-01-15T11:55:28.810Z,6.13
2023-01-15T11:56:15.184Z,5.94
2023-01-15T11:56:57.530Z,5.95
2023-01-15T11:57:40.192Z,5.95
2023-01-15T11:58:22.467Z,6.08
2023-01-15T11:59:12.538Z,6.05
2023-01-15T12:00:08.344Z,6.03
2023-01-15T12:00:54.796Z,5.91
2023-01-15T12:01:39.132Z,5.81
2023-01-15T12:02:38.648Z,5.97
2023-01-15T12:03:23.986Z,5.99
2023-01-15T12:04:23.698Z,5.92
2023-01-15T12:05:07.231Z,5.95
2023-01-15T12:06:10.668Z,5.83
2023-01-15T12:06:52.555Z,5.91
2023-01-15T12:07:39.537Z,5.82
2023-01-15T12:08:53.726Z,5.82
2023-01-15T12:09:44.133Z,5.90
2023-01-15T12:10:52.547Z,5.89
2023-01-15T12:11:49.031Z,5.84
2023-01-15T12:13:01.711Z,5.78
2023-01-15T12:13:56.003Z,5.78
2023-01-15T12:14:44.389Z,5.83
2023-01-15T12:15:37.920Z,5.80
2023-01-15T12:16:40.530Z,5.78
2023-01-15T12:17:25.145Z,5.80
2023-01-15T12:18:17.743Z,5.52
2023-01-15T12:19:19.866Z,5.61
2023-01-15T12:20:07.683Z,5.78
2023-01-15T12:21:05.042Z,5.79
2023-01-15T12:22:02.903Z,5.59
2023-01-15T12:23:02.591Z,5.81
2023-01-15T12:24:27.600Z,5.81
2023-01-15T12:25:33.583Z,5.77
2023-01-15T12:26:29.593Z,5.73
2023-01-15T12:27:56.537Z,5.77
2023-01-15T12:28:44.830Z,5.77
2023-01-15T12:29:31.808Z,5.92
2023-01-15T12:30:22.743Z,5.95
2023-01-15T12:31:22.515Z,6.02
2023-01-15T12:32:17.401Z,5.89
2023-01-15T12:33:08.269Z,6.12
2023-01-15T12:33:57.520Z,6.12
2023-01-15T12:34:45.541Z,6.09
2023-01-15T12:35:31.673Z,6.07
2023-01-15T12:36:21.866Z,5.94
2023-01-15T12:37:13.194Z,5.93
2023-01-15T12:38:10.590Z,5.95
2023-01-15T12:39:16.813Z,5.99
2023-01-15T12:40:28.173Z,5.88
2023-01-15T12:41:48.069Z,5.85
2023-01-15T12:42:51.052Z,5.92
2023-01-15T12:43:51.748Z,5.93
2023-01-15T12:45:06.093Z,5.73
2023-01-15T12:45:52.197Z,5.95
2023-01-15T12:46:37.698Z,5.87
2023-01-15T12:47:26.954Z,6.03
2023-01-15T12:48:32.077Z,6.14
2023-01-15T12:49:35.636Z,5.98
2023-01-15T12:50:42.037Z,6.19
2023-01-15T12:51:33.171Z,6.03
2023-01-15T12:52:24.409Z,6.07
2023-01-15T12:53:22.156Z,6.03
2023-01-15T12:54:14.214Z,5.95
2023-01-15T12:55:13.314Z,6.10
2023-01-15T12:56:05.028Z,6.26
2023-01-15T12:57:09.930Z,6.56
2023-01-15T12:57:56.720Z,6.45
2023-01-15T12:59:04.134Z,6.78
2023-01-15T12:59:59.406Z,6.61
2023-01-15T13:00:43.936Z,6.75
2023-01-15T13:01:50.939Z,6.96
2023-01-15T13:02:38.930Z,6.91
2023-01-15T13:03:38.410Z,6.96
2023-01-15T13:04:39.908Z,7.00
2023-01-15T13:05:36.717Z,7.03
2023-01-15T13:06:20.538Z,7.17
2023-01-15T13:07:37.247Z,7.15
2023-01-15T13:08:27.251Z,7.10
2023-01-15T13:09:25.617Z,7.14
2023-01-15T13:10:24.600Z,7.08
2023-01-15T13:11:07.839Z,6.95
2023-01-15T13:11:49.654Z,7.03
2023-01-15T13:12:31.404Z,7.06
2023-01-15T13:13:24.546Z,7.19
2023-01-15T13:14:26.556Z,7.26
2023-01-15T13:15:14.642Z,7.17
2023-01-15T13:16:07.088Z,7.15
2023-01-15T13:16:58.170Z,7.21
2023-01-15T13:17:57.545Z,7.13
2023-01-15T13:19:04.040Z,7.11
2023-01-15T13:20:13.489Z,6.98
2023-01-15T13:20:55.985Z,7.25
2023-01-15T13:21:40.389Z,7.35
2023-01-15T13:22:26.676Z,7.27
2023-01-15T13:23:37.723Z,7.29
2023-01-15T13:24:53.258Z,7.15
2023-01-15T13:25:52.368Z,7.21
2023-01-15T13:27:11.018Z,7.42
2023-01-15T13:28:11.174Z,7.39
2023-01-15T13:29:25.778Z,7.13
2023-01-15T13:30:42.295Z,7.15
2023-01-15T13:31:48.231Z,7.29
2023-01-15T13:32:35.240Z,7.24
2023-01-15T13:33:44.112Z,7.08
2023-01-15T13:34:34.668Z,6.83
2023-01-15T13:35:41.060Z,6.76
2023-01-15T13:36:29.345Z,6.48
2023-01-15T13:37:13.846Z,6.58
2023-01-15T13:38:00.178Z,6.55
2023-01-15T13:38:48.837Z,6.66
2023-01-15T13:39:40.205Z,6.52
2023-01-15T13:40:29.457Z,6.63
2023-01-15T13:41:42.209Z,6.47
2023-01-15T13:42:32.773Z,6.38
2023-01-15T13:43:35.685Z,6.72
2023-01-15T13:44:22.095Z,6.88
2023-01-15T13:45:21.116Z,6.71
2023-01-15T13:46:05.518Z,6.84
2023-01-15T13:47:03.138Z,7.07
2023-01-15T13:47:49.061Z,6.99
2023-01-15T13:48:48.474Z,7.10
2023-01-15T13:49:45.682Z,7.18
2023-01-15T13:50:29.522Z,7.20
2023-01-15T13:51:32.026Z,7.22
2023-01-15T13:52:24.863Z,7.20
2023-01-15T13:53:28.270Z,7.23
2023-01-15T13:54:16.721Z,7.35
2023-01-15T13:55:20.822Z,7.38
2023-01-15T13:56:07.809Z,7.36
2023-01-15T13:56:49.745Z,7.30
2023-01-15T13:57:41.117Z,7.44
2023-01-15T13:58:26.439Z,7.38
2023-01-15T13:59:37.024Z,7.47
2023-01-15T14:00:37.196Z,7.40
2023-01-15T14:01:21.936Z,7.36
2023-01-15T14:02:21.318Z,7.34
2023-01-15T14:03:27.440Z,7.35
2023-01-15T14:04:18.015Z,7.41
2023-01-15T14:05:00.409Z,7.35
2023-01-15T14:05:42.429Z,7.35
2023-01-15T14:06:48.484Z,7.35
2023-01-15T14:07:37.776Z,7.21
2023-01-15T14:08:26.554Z,7.15
2023-01-15T14:09:13.591Z,7.23
2023-01-15T14:09:55.793Z,7.28
2023-01-15T14:10:38.686Z,7.04
2023-01-15T14:11:44.959Z,7.32
2023-01-15T14:12:46.606Z,7.31
2023-01-15T14:14:10.467Z,7.34
2023-01-15T14:15:21.939Z,7.36
2023-01-15T14:16:36.362Z,7.36
2023-01-15T14:17:30.073Z,7.35
2023-01-15T14:18:27.789Z,7.24
2023-01-15T14:19:18.425Z,7.22
2023-01-15T14:20:34.380Z,7.16
2023-01-15T14:21:23.725Z,7.11
2023-01-15T14:22:27.143Z,7.08
2023-01-15T14:23:39.712Z,7.12
2023-01-15T14:24:42.935Z,7.13
2023-01-15T14:25:34.278Z,7.19
2023-01-15T14:26:16.078Z,7.15
2023-01-15T14:27:18.532Z,7.07
2023-01-15T14:28:26.233Z,7.01
2023-01-15T14:29:26.745Z,7.06
2023-01-15T14:30:14.241Z,7.13
2023-01-15T14:31:10.671Z,6.99
2023-01-15T14:32:08.901Z,6.93
2023-01-15T14:33:04.591Z,6.93
2023-01-15T14:34:04.505Z,6.96
2023-01-15T14:34:56.014Z,6.85
2023-01-15T14:35:45.692Z,6.73
2023-01-15T14:36:32.702Z,6.86
2023-01-15T14:37:37.070Z,6.84
2023-01-15T14:38:22.613Z,6.78
2023-01-15T14:39:21.891Z,6.64
2023-01-15T14:40:05.809Z,6.53
2023-01-15T14:40:59.885Z,6.61
2023-01-15T14:42:01.883Z,6.63
2023-01-15T14:43:02.316Z,6.54
2023-01-15T14:43:49.395Z,6.59
2023-01-15T14:44:33.749Z,6.62
2023-01-15T14:45:28.258Z,6.63
2023-01-15T14:46:21.869Z,6.64
2023-01-15T14:47:06.660Z,6.37
2023-01-15T14:47:54.349Z,6.53
2023-01-15T14:48:39.762Z,6.41
2023-01-15T14:49:42.218Z,6.52
2023-01-15T14:50:38.679Z,6.36
2023-01-15T14:51:28.303Z,6.49
2023-01-15T14:52:10.454Z,6.45
2023-01-15T14:52:59.996Z,6.43
2023-01-15T14:54:00.118Z,6.40
2023-01-15T14:54:44.128Z,6.20
2023-01-15T14:55:26.642Z,6.28
2023-01-15T14:56:36.194Z,6.37
2023-01-15T14:57:18.577Z,6.28
2023-01-15T14:58:04.951Z,6.08
2023-01-15T14:58:52.643Z,6.40
2023-01-15T14:59:48.685Z,6.44
2023-01-15T15:00:39.870Z,6.33
2023-01-15T15:01:21.649Z,6.42
2023-01-15T15:02:18.526Z,6.36
2023-01-15T15:03:02.455Z,6.35
2023-01-15T15:04:12.351Z,6.39
2023-01-15T15:04:56.595Z,6.36
2023-01-15T15:05:43.208Z,6.28
2023-01-15T15:06:27.831Z,6.40
2023-01-15T15:07:25.771Z,6.39
2023-01-15T15:08:13.869Z,6.22
2023-01-15T15:09:02.097Z,6.31
2023-01-15T15:09:47.671Z,6.35
2023-01-15T15:10:43.948Z,6.20
2023-01-15T15:11:54.583Z,6.28
2023-01-15T15:13:07.757Z,6.25
2023-01-15T15:13:50.785Z,6.10
2023-01-15T15:14:39.605Z,6.23
2023-01-15T15:15:39.042Z,6.15
2023-01-15T15:16:27.091Z,6.20
2023-01-15T15:17:21.635Z,6.08
2023-01-15T15:18:26.915Z,6.09
2023-01-15T15:19:36.685Z,5.97
2023-01-15T15:20:33.435Z,6.07
2023-01-15T15:21:21.941Z,5.84
2023-01-15T15:22:06.957Z,5.90
2023-01-15T15:22:55.271Z,5.99
2023-01-15T15:23:47.379Z,5.98
2023-01-15T15:24:32.692Z,5.96
2023-01-15T15:25:22.503Z,5.78
2023-01-15T15:26:24.425Z,5.90
2023-01-15T15:27:24.298Z,5.93
2023-01-15T15:28:09.573Z,5.92
2023-01-15T15:29:00.530Z,5.93
2023-01-15T15:29:42.248Z,5.80
2023-01-15T15:30:24.164Z,5.74
2023-01-15T15:31:06.022Z,5.77
2023-01-15T15:31:56.933Z,5.88
2023-01-15T15:32:41.258Z,5.88
2023-01-15T15:33:26.636Z,5.88
2023-01-15T15:34:22.730Z,5.87
2023-01-15T15:35:04.782Z,5.91
2023-01-15T15:35:50.587Z,5.80
2023-01-15T15:36:38.319Z,5.89
2023-01-15T15:37:26.800Z,5.79
2023-01-15T15:38:17.377Z,5.78
2023-01-15T15:39:02.134Z,5.83
2023-01-15T15:40:25.771Z,5.81
2023-01-15T15:41:12.126Z,5.73
2023-01-15T15:42:29.719Z,5.60
2023-01-15T15:43:38.398Z,5.71
2023-01-15T15:44:55.460Z,5.53
2023-01-15T15:45:55.791Z,5.73
2023-01-15T15:46:56.076Z,5.71
2023-01-15T15:47:58.623Z,5.71
2023-01-15T15:48:45.091Z,5.71
2023-01-15T15:49:26.855Z,5.69
2023-01-15T15:50:23.247Z,5.63
2023-01-15T15:51:06.495Z,5.66
2023-01-15T15:51:50.469Z,5.54
2023-01-15T15:52:33.789Z,5.62
2023-01-15T15:53:18.343Z,5.65
2023-01-15T15:54:13.690Z,5.65
2023-01-15T15:55:05.859Z,5.48
2023-01-15T15:55:47.647Z,5.63
2023-01-15T15:56:31.057Z,5.49
2023-01-15T15:57:16.462Z,5.48
2023-01-15T15:58:01.867Z,5.60
2023-01-15T15:58:44.091Z,5.54
2023-01-15T15:59:30.189Z,5.54
2023-01-15T16:00:29.549Z,5.61
2023-01-15T16:01:13.912Z,5.40
2023-01-15T16:01:57.688Z,5.62
2023-01-15T16:02:41.493Z,5.60
2023-01-15T16:03:27.181Z,5.62
2023-01-15T16:04:16.390Z,5.47
2023-01-15T16:05:00.185Z,5.66
2023-01-15T16:05:41.976Z,5.53
2023-01-15T16:06:27.614Z,5.49
2023-01-15T16:07:13.916Z,5.55
2023-01-15T16:07:55.810Z,5.41
2023-01-15T16:08:37.530Z,5.62
2023-01-15T16:09:24.227Z,5.63
2023-01-15T16:10:14.313Z,5.63
2023-01-15T16:11:02.030Z,5.54
2023-01-15T16:11:43.885Z,5.48
2023-01-15T16:12:29.926Z,5.64
2023-01-15T16:13:24.867Z,5.67